• Join FlightAware (Why Join?)
  • Login
  • US Flag 
12:54PM EST


 

Airport Tracker/Info


-or-


 

Live Flight TrackerFlight Track Log ✈ N200PZ ✈ 29-Jul-2014 ✈ KCID - KFCM

Flight Track Log - Related Links

Times and Time Zones

All times are in EDT time to prevent confusion due to time zone crossing. See the N200PZ flight status page for this flight to view local times or setup timezone preferences in your user account.

Time Position Orientation Groundspeed Altitude Reporting Facility
EDT Latitude Longitude Course Direction KTS MPH feet Rate Location/Type
04:51PM 41.9103 -91.8122 343° North 144 166 4,900  Level Minneapolis Center
04:52PM 41.9369 -91.8233 343° North 167 192 5,800 1,740 Climbing Chicago Center
04:53PM 41.9881 -91.8644 329° Northwest 172 198 8,000 1,800 Climbing Chicago Center
04:54PM 42.0333 -91.8953 333° Northwest 178 205 9,600 1,440 Climbing Chicago Center
04:55PM 42.0792 -91.9272 333° Northwest 185 213 11,000 1,200 Climbing Chicago Center
04:56PM 42.1272 -91.9594 334° Northwest 190 219 12,200 1,200 Climbing Chicago Center
04:57PM 42.1833 -91.9981 333° Northwest 191 220 13,600 1,200 Climbing Chicago Center
04:58PM 42.2294 -92.0314 332° Northwest 191 220 14,800 1,080 Climbing Chicago Center
04:59PM 42.2750 -92.0608 334° Northwest 184 212 15,900 600 Climbing Chicago Center
05:00PM 42.3258 -92.0931 335° Northwest 202 232 16,100 60 Climbing Chicago Center
05:01PM 42.3808 -92.1292 334° Northwest 218 251 16,100  Level Chicago Center
05:02PM 42.4456 -92.1778 331° Northwest 221 254 16,100 -60 Level Chicago Center
05:03PM 42.4986 -92.2203 329° Northwest 222 255 16,000  Descending Chicago Center
05:05PM 42.5550 -92.2569 334° Northwest 226 260 16,100  Climbing Chicago Center
05:06PM 42.6106 -92.2928 335° Northwest 226 260 16,000  Descending Chicago Center
05:07PM 42.6658 -92.3306 333° Northwest 225 259 16,100  Climbing Chicago Center
05:08PM 42.7189 -92.3753 328° Northwest 225 259 16,000  Descending Chicago Center
05:09PM 42.7844 -92.4203 333° Northwest 225 259 16,100  Climbing Chicago Center
05:10PM 42.8417 -92.4536 337° Northwest 225 259 16,100 -60 Level Chicago Center
05:11PM 42.8975 -92.4908 334° Northwest 225 259 16,000  Descending Chicago Center
05:12PM 42.9528 -92.5314 332° Northwest 225 259 16,100  Climbing Chicago Center
05:13PM 43.0050 -92.5725 330° Northwest 225 259 16,000  Descending Chicago Center
05:14PM 43.0689 -92.6225 330° Northwest 225 259 16,100  Climbing Chicago Center
05:15PM 43.1233 -92.6589 334° Northwest 223 257 16,100 -60 Level Chicago Center
05:16PM 43.1775 -92.6969 333° Northwest 223 257 16,000  Descending Chicago Center
05:17PM 43.2314 -92.7369 332° Northwest 223 257 16,100  Climbing Chicago Center
05:18PM 43.2944 -92.7831 332° Northwest 221 254 16,000 -60 Descending Chicago Center
05:19PM 43.3500 -92.8197 334° Northwest 221 254 16,000  Level Chicago Center
05:20PM 43.4044 -92.8611 331° Northwest 221 254 16,000  Level Chicago Center
05:21PM 43.4581 -92.9019 331° Northwest 221 254 16,000  Level Chicago Center
05:22PM 43.5136 -92.9381 335° Northwest 221 254 16,000  Level Chicago Center
05:23PM 43.5936 -92.9919 334° Northwest 222 255 16,000 -60 Level Minneapolis Center
05:25PM 43.6475 -93.0344 330° Northwest 222 255 15,900 -660 Descending Minneapolis Center
05:26PM 43.7203 -93.0772 337° Northwest 232 267 14,700 -1,020 Descending Minneapolis Center
05:27PM 43.7819 -93.1219 332° Northwest 245 282 13,900 -1,020 Descending Minneapolis Center
05:28PM 43.8450 -93.1725 330° Northwest 247 284 12,700 -1,200 Descending Minneapolis Center
05:29PM 43.9083 -93.2206 331° Northwest 255 293 11,500 -1,080 Descending Minneapolis Center
05:30PM 43.9722 -93.2644 334° Northwest 256 295 10,500 -1,140 Descending Minneapolis Center
05:31PM 44.0422 -93.3156 332° Northwest 254 292 9,200 -1,260 Descending Minneapolis Center
05:32PM 44.1081 -93.3692 330° Northwest 254 292 7,900 -1,080 Descending Minneapolis Center
05:33PM 44.1683 -93.4183 330° Northwest 255 293 7,000 -480 Descending Minneapolis Center
05:34PM 44.2278 -93.4617 332° Northwest 243 280 6,900  Descending Minneapolis Center
05:35PM 44.2897 -93.4639 359° North 232 267 7,000 -360 Climbing Minneapolis Center
05:36PM 44.3536 -93.4575 North 229 264 6,200 -960 Descending Minneapolis Center
05:37PM 44.4208 -93.4553 North 238 274 5,100 -1,260 Descending Minneapolis Center
05:38PM 44.4997 -93.4528 North 234 269 3,700 -1,020 Descending Minneapolis Center
05:39PM 44.5589 -93.4517 North 222 255 3,100 -360 Descending Minneapolis Center
05:40PM 44.6169 -93.4492 North 207 238 3,000 -60 Descending Minneapolis Center
05:41PM 44.6697 -93.4414 North 198 228 3,000 -240 Level Minneapolis Center
05:42PM 44.7236 -93.4458 357° North 196 226 2,500 -300 Descending Minneapolis Center
05:43PM 44.7697 -93.4703 339° North 177 204 2,400 -60 Descending Minneapolis Center
05:44PM 44.7933 -93.4275 52° Northeast 157 181 2,400 -480 Level Minneapolis Center
05:45PM 44.8211 -93.4156 17° North 124 143 1,500 -780 Descending Minneapolis Center
05:46PM 44.8269 -93.4525 283° West 99 114 900 -600 Descending Minneapolis Center